Time;durP1;ratioP1;P1;durP2;ratioP2;P2;SDS_P1;SDS_P2;PMS_P1;PMS_P2;Temp;Humidity;BMP_temperature;BMP_pressure;BME280_temperature;BME280_humidity;BME280_pressure;Samples;Min_cycle;Max_cycle;Signal;HPM_P1;HPM_P2
2022/04/07 00:00:21;;;;;;;5.80;2.72;;;;;;;10.56;57.42;63087.03;5054784;28;20419;-77
2022/04/07 00:02:49;;;;;;;4.25;3.00;;;;;;;10.50;56.93;63080.84;5065321;28;20225;-76
2022/04/07 00:05:15;;;;;;;2.85;2.60;;;;;;;10.45;56.99;63073.13;5070736;28;20204;-76
2022/04/07 00:07:42;;;;;;;3.45;2.55;;;;;;;10.33;57.89;63058.69;5073088;28;20236;-76
2022/04/07 00:10:10;;;;;;;4.57;2.50;;;;;;;10.32;57.67;63062.72;5059758;28;20195;-77
2022/04/07 00:12:37;;;;;;;3.50;2.45;;;;;;;10.40;58.60;63070.50;5047531;28;20256;-76
2022/04/07 00:15:05;;;;;;;3.17;2.95;;;;;;;10.26;59.10;63058.56;5048853;28;20198;-76
2022/04/07 00:17:32;;;;;;;4.03;2.70;;;;;;;10.20;59.75;63052.34;5064143;28;20221;-78
2022/04/07 00:19:59;;;;;;;3.05;2.75;;;;;;;10.24;59.56;63053.94;5057543;28;20422;-77
2022/04/07 00:22:25;;;;;;;2.97;2.72;;;;;;;10.20;60.04;63050.31;5067178;28;20526;-77
2022/04/07 00:24:53;;;;;;;2.58;2.35;;;;;;;10.12;60.78;63046.63;5067183;28;20524;-78
2022/04/07 00:27:21;;;;;;;3.47;3.13;;;;;;;10.12;60.94;63039.50;5064042;28;20399;-77
2022/04/07 00:29:48;;;;;;;2.97;2.78;;;;;;;10.13;60.83;63045.63;5062169;28;20197;-77
2022/04/07 00:32:15;;;;;;;3.05;2.70;;;;;;;10.21;60.54;63048.28;5067871;28;20409;-78
2022/04/07 00:34:44;;;;;;;3.40;3.20;;;;;;;10.22;61.89;63054.94;5068396;28;20205;-76
2022/04/07 00:37:11;;;;;;;3.88;3.53;;;;;;;10.16;63.92;63045.66;5059779;28;20543;-77
2022/04/07 00:39:38;;;;;;;4.90;3.50;;;;;;;10.02;65.65;63031.69;5046419;28;20553;-77
2022/04/07 00:42:05;;;;;;;3.95;3.65;;;;;;;9.96;66.70;63025.47;5046822;28;20576;-77
2022/04/07 00:44:33;;;;;;;3.53;3.22;;;;;;;9.89;65.28;63015.69;5046474;28;20256;-78
2022/04/07 00:47:00;;;;;;;3.30;3.00;;;;;;;9.85;64.90;63014.09;5055221;28;20441;-78
2022/04/07 00:49:27;;;;;;;3.90;3.60;;;;;;;9.81;65.05;63009.44;5063319;28;20436;-79
2022/04/07 00:51:55;;;;;;;3.63;3.33;;;;;;;9.80;65.10;63008.41;5065655;28;20255;-77
2022/04/07 00:54:21;;;;;;;5.75;3.10;;;;;;;9.86;64.68;63015.13;5063488;28;20235;-77
2022/04/07 00:56:49;;;;;;;3.88;3.03;;;;;;;9.87;63.99;63013.09;5054202;28;20256;-77
2022/04/07 00:59:17;;;;;;;3.30;3.00;;;;;;;9.83;64.14;63012.03;5065953;28;20194;-76
2022/04/07 01:01:45;;;;;;;3.35;3.13;;;;;;;9.80;64.19;63013.50;5066076;28;20220;-77
2022/04/07 01:04:12;;;;;;;3.97;3.10;;;;;;;9.83;64.27;63012.03;5060172;28;20452;-78
2022/04/07 01:06:42;;;;;;;3.60;3.05;;;;;;;9.75;64.94;63003.25;5051382;28;20221;-77
2022/04/07 01:09:09;;;;;;;3.30;3.05;;;;;;;9.68;65.36;62998.53;5066310;28;20194;-77
2022/04/07 01:11:37;;;;;;;3.60;3.30;;;;;;;9.56;67.23;62981.03;5065955;28;20204;-78
2022/04/07 01:14:05;;;;;;;3.50;2.90;;;;;;;9.43;68.04;62968.13;5051399;28;20225;-77
2022/04/07 01:16:32;;;;;;;3.05;2.85;;;;;;;9.32;68.74;62959.81;5046226;28;20205;-77
2022/04/07 01:19:01;;;;;;;6.72;3.05;;;;;;;9.16;70.41;62945.28;5046176;28;20195;-77
2022/04/07 01:21:30;;;;;;;4.05;3.35;;;;;;;9.10;70.57;62937.06;5045118;28;20205;-77
2022/04/07 01:24:03;;;;;;;4.45;3.75;;;;;;;9.11;70.39;62940.63;5057056;28;20197;-77
2022/04/07 01:26:37;;;;;;;3.42;3.13;;;;;;;9.08;70.76;62932.44;5066476;28;20203;-77
2022/04/07 01:29:04;;;;;;;3.55;3.25;;;;;;;9.09;71.04;62930.94;5065090;28;20252;-77
2022/04/07 01:31:32;;;;;;;3.85;3.55;;;;;;;9.13;70.79;62940.16;5054456;28;20208;-78
2022/04/07 01:34:00;;;;;;;3.28;2.97;;;;;;;9.11;69.81;62932.50;5052110;28;20253;-77
2022/04/07 01:36:28;;;;;;;4.70;3.10;;;;;;;9.11;70.31;62940.13;5045261;28;20202;-77
2022/04/07 01:38:55;;;;;;;2.88;2.67;;;;;;;9.09;70.23;62935.50;5045578;28;20490;-77
2022/04/07 01:41:23;;;;;;;3.97;2.80;;;;;;;9.03;70.98;62932.38;5053467;28;20206;-76
2022/04/07 01:43:53;;;;;;;3.88;2.50;;;;;;;9.16;70.59;62938.16;5063667;28;20264;-77
2022/04/07 01:46:22;;;;;;;3.30;3.00;;;;;;;9.14;70.04;62940.69;5065574;28;20201;-76
2022/04/07 01:48:49;;;;;;;6.13;3.13;;;;;;;9.14;69.99;62941.19;5061293;28;20232;-76
2022/04/07 01:51:17;;;;;;;2.90;2.70;;;;;;;9.21;68.99;62945.88;5051805;28;20198;-77
2022/04/07 01:53:44;;;;;;;3.05;2.83;;;;;;;9.28;68.14;62955.16;5044774;28;20237;-77
2022/04/07 01:56:11;;;;;;;3.22;3.00;;;;;;;9.28;69.67;62960.25;5049182;28;20193;-76
2022/04/07 01:58:39;;;;;;;3.42;3.15;;;;;;;9.07;71.23;62928.38;5055983;28;20276;-77
2022/04/07 02:01:07;;;;;;;3.92;3.63;;;;;;;9.13;71.84;62934.56;5059906;28;20208;-76
2022/04/07 02:03:34;;;;;;;2.90;2.70;;;;;;;8.98;72.37;62919.06;5052997;28;20526;-77
2022/04/07 02:06:20;;;;;;;3.05;2.85;;;;;;;8.98;72.95;62922.13;5058107;28;20197;-77
2022/04/07 02:08:47;;;;;;;3.33;3.03;;;;;;;9.06;72.34;62935.47;5051426;28;20569;-77
2022/04/07 02:11:14;;;;;;;3.60;3.30;;;;;;;9.01;72.13;62927.22;5049984;28;20198;-77
2022/04/07 02:13:42;;;;;;;3.50;3.20;;;;;;;9.07;72.00;62933.44;5063676;28;20229;-78
2022/04/07 02:16:11;;;;;;;2.95;2.72;;;;;;;9.09;72.42;62935.50;5065463;28;20209;-76
2022/04/07 02:18:39;;;;;;;3.28;3.08;;;;;;;9.17;72.04;62944.31;5052166;28;20303;-77
2022/04/07 02:21:07;;;;;;;3.92;3.63;;;;;;;9.17;71.89;62949.38;5050736;28;20221;-76
2022/04/07 02:23:41;;;;;;;5.00;3.60;;;;;;;9.21;71.95;62950.97;5050504;28;20222;-76
2022/04/07 02:26:10;;;;;;;3.83;3.53;;;;;;;9.17;72.65;62946.31;5057301;28;20199;-76
2022/04/07 02:28:38;;;;;;;3.58;3.28;;;;;;;9.15;73.04;62941.72;5045627;28;20226;-76
2022/04/07 02:31:05;;;;;;;3.75;3.38;;;;;;;9.11;73.44;62935.03;5044141;28;20198;-76
2022/04/07 02:33:34;;;;;;;3.88;3.20;;;;;;;9.04;73.54;62928.31;5045521;28;20484;-76
2022/04/07 02:36:01;;;;;;;3.45;3.08;;;;;;;9.06;73.29;62930.38;5052575;28;20206;-76
2022/04/07 02:38:28;;;;;;;4.50;3.17;;;;;;;9.09;73.17;62938.06;5043944;28;20794;-76
2022/04/07 02:40:54;;;;;;;3.38;3.17;;;;;;;9.13;72.63;62939.63;5047071;28;21061;-76
2022/04/07 02:43:21;;;;;;;3.88;3.00;;;;;;;9.34;71.85;62963.88;5061302;28;20418;-77
2022/04/07 02:45:48;;;;;;;4.57;2.90;;;;;;;9.32;71.57;62957.25;5053497;28;20236;-77
2022/04/07 02:48:16;;;;;;;6.47;3.75;;;;;;;9.36;71.19;62965.97;5044678;28;20210;-77
2022/04/07 02:50:44;;;;;;;6.03;2.92;;;;;;;9.37;70.44;62966.47;5044414;28;20198;-76
2022/04/07 02:53:11;;;;;;;5.72;3.50;;;;;;;9.41;69.77;62968.59;5053680;28;20221;-76
2022/04/07 02:55:38;;;;;;;3.05;2.80;;;;;;;9.47;69.17;62969.19;5047620;28;20221;-77
2022/04/07 02:58:05;;;;;;;5.25;2.88;;;;;;;9.46;68.91;62970.72;5044762;28;20339;-77
2022/04/07 03:00:32;;;;;;;5.75;3.08;;;;;;;9.59;68.28;62986.69;5052709;28;20212;-77
2022/04/07 03:02:59;;;;;;;3.05;2.50;;;;;;;9.73;68.03;63003.72;5055425;28;20263;-77
2022/04/07 03:05:26;;;;;;;4.00;3.70;;;;;;;9.93;67.90;63019.31;5067936;28;20190;-76
2022/04/07 03:07:54;;;;;;;3.50;2.60;;;;;;;10.02;67.71;63031.69;5067306;28;20229;-77
2022/04/07 03:10:21;;;;;;;3.28;3.05;;;;;;;10.06;71.15;63032.75;5061555;28;20225;-76
2022/04/07 03:12:47;;;;;;;3.17;2.97;;;;;;;9.83;75.82;63009.47;5045562;28;20245;-76
2022/04/07 03:15:14;;;;;;;3.50;3.22;;;;;;;9.77;77.26;63000.22;5048153;28;20225;-77
2022/04/07 03:17:41;;;;;;;4.00;3.13;;;;;;;9.52;79.17;62974.38;5064296;28;20224;-77
2022/04/07 03:20:09;;;;;;;4.70;3.47;;;;;;;9.41;80.47;62966.03;5059976;28;20276;-77
2022/04/07 03:22:36;;;;;;;3.33;3.13;;;;;;;9.30;79.73;62957.72;5045877;28;20253;-77
2022/04/07 03:25:05;;;;;;;6.75;2.95;;;;;;;9.29;80.39;62956.69;5045573;28;20200;-76
2022/04/07 03:27:31;;;;;;;4.30;3.35;;;;;;;9.17;80.06;62946.31;5071651;28;20214;-77
2022/04/07 03:29:58;;;;;;;4.53;3.72;;;;;;;9.15;80.01;62944.78;5054745;28;20422;-77
2022/04/07 03:32:25;;;;;;;5.40;3.80;;;;;;;9.22;78.84;62951.47;5066265;28;20225;-77
2022/04/07 03:34:52;;;;;;;3.53;3.13;;;;;;;9.31;78.84;62958.25;5065383;28;20230;-77
2022/04/07 03:37:20;;;;;;;7.18;3.78;;;;;;;9.45;79.26;62972.72;5047815;28;20217;-77
2022/04/07 03:39:47;;;;;;;4.65;3.28;;;;;;;9.53;77.40;62977.94;5058638;28;20496;-77
2022/04/07 03:42:15;;;;;;;5.18;3.22;;;;;;;9.64;76.39;62994.91;5048767;28;20244;-77
2022/04/07 03:44:42;;;;;;;7.03;3.28;;;;;;;9.76;74.54;63004.78;5059558;28;20259;-77
2022/04/07 03:47:09;;;;;;;4.97;3.40;;;;;;;9.71;74.50;63001.63;5060905;28;20222;-77
2022/04/07 03:49:36;;;;;;;4.85;3.53;;;;;;;9.71;73.96;62999.09;5049910;28;20202;-78
2022/04/07 03:52:04;;;;;;;3.97;3.28;;;;;;;9.76;72.09;63001.72;5048571;28;20218;-78
2022/04/07 03:54:31;;;;;;;3.50;3.20;;;;;;;9.77;72.67;63007.84;5048019;28;20268;-75
2022/04/07 03:56:58;;;;;;;6.45;4.60;;;;;;;9.80;72.50;63003.81;5050602;28;20218;-76
2022/04/07 03:59:26;;;;;;;8.88;7.53;;;;;;;9.88;71.66;63017.19;5061543;28;20201;-75
2022/04/07 04:01:54;;;;;;;4.28;3.50;;;;;;;9.89;70.84;63020.78;5064813;28;20217;-75
2022/04/07 04:04:22;;;;;;;3.90;3.60;;;;;;;9.87;70.77;63015.66;5046618;28;20252;-75
2022/04/07 04:06:48;;;;;;;4.05;3.63;;;;;;;9.92;70.38;63015.72;5047682;28;20263;-75
2022/04/07 04:09:15;;;;;;;8.45;4.10;;;;;;;9.99;70.06;63031.09;5046851;28;20198;-76
2022/04/07 04:11:42;;;;;;;22.38;12.23;;;;;;;9.92;71.22;63018.78;5046429;28;20220;-75
2022/04/07 04:14:09;;;;;;;7.45;6.13;;;;;;;9.90;70.94;63016.72;5051536;28;20229;-74
2022/04/07 04:16:37;;;;;;;10.68;3.58;;;;;;;9.76;71.43;63004.25;5060180;28;20485;-75
2022/04/07 04:19:04;;;;;;;7.63;3.90;;;;;;;9.55;71.89;62985.09;5066532;28;20198;-75
2022/04/07 04:21:31;;;;;;;4.07;3.70;;;;;;;9.72;72.99;63000.13;5066463;28;20243;-75
2022/04/07 04:23:58;;;;;;;6.75;3.67;;;;;;;9.70;70.73;62990.44;5059728;28;20201;-75
2022/04/07 04:26:25;;;;;;;14.68;4.55;;;;;;;9.64;71.00;62987.28;5070823;28;20216;-75
2022/04/07 04:28:52;;;;;;;18.33;5.00;;;;;;;9.84;71.19;63015.06;5054776;28;20226;-74
2022/04/07 04:31:20;;;;;;;6.05;4.45;;;;;;;9.98;69.67;63027.00;5049729;28;20236;-75
2022/04/07 04:33:48;;;;;;;3.80;3.50;;;;;;;9.94;70.24;63020.34;5050404;28;20217;-79
2022/04/07 04:36:16;;;;;;;7.45;4.72;;;;;;;10.00;69.46;63032.16;5059327;28;20198;-77
2022/04/07 04:38:43;;;;;;;8.05;4.80;;;;;;;10.08;68.98;63037.91;5067547;28;20262;-77
2022/04/07 04:41:10;;;;;;;5.82;4.22;;;;;;;10.13;68.67;63045.13;5052219;28;20228;-76
2022/04/07 04:43:37;;;;;;;6.38;4.50;;;;;;;10.18;68.22;63050.78;5063542;28;20229;-76
2022/04/07 04:46:13;;;;;;;7.28;4.55;;;;;;;10.25;68.56;63057.53;5053502;28;20213;-80
2022/04/07 04:48:40;;;;;;;4.97;4.47;;;;;;;10.19;69.42;63048.78;5046926;28;20220;-77
2022/04/07 04:51:08;;;;;;;5.00;4.22;;;;;;;10.28;68.89;63058.09;5046198;28;20432;-77
2022/04/07 04:53:35;;;;;;;6.45;4.35;;;;;;;10.37;68.50;63067.91;5046634;28;20218;-77
2022/04/07 04:56:02;;;;;;;5.60;3.85;;;;;;;10.14;71.46;63044.13;5051248;28;20208;-78
2022/04/07 04:58:29;;;;;;;6.43;3.42;;;;;;;10.07;70.09;63038.88;5053248;28;20569;-77
2022/04/07 05:00:57;;;;;;;5.45;3.70;;;;;;;10.15;69.15;63042.59;5053976;28;20213;-78
2022/04/07 05:03:24;;;;;;;12.20;4.82;;;;;;;10.28;70.33;63060.63;5056816;28;20439;-76
2022/04/07 05:05:51;;;;;;;12.07;4.13;;;;;;;10.38;65.83;63068.94;5064401;28;20426;-78
2022/04/07 05:08:21;;;;;;;5.78;4.15;;;;;;;10.49;69.66;63074.72;5058354;28;20224;-78
2022/04/07 05:10:47;;;;;;;6.47;3.75;;;;;;;10.56;69.15;63086.53;5050955;28;20198;-79
2022/04/07 05:13:14;;;;;;;4.97;3.80;;;;;;;10.72;68.15;63106.16;5053248;28;20580;-79
2022/04/07 05:15:41;;;;;;;6.18;4.30;;;;;;;10.83;67.21;63115.00;5059998;28;20275;-78
2022/04/07 05:18:08;;;;;;;7.05;5.28;;;;;;;10.76;66.61;63107.75;5057687;28;20217;-77
2022/04/07 05:20:35;;;;;;;7.43;5.93;;;;;;;10.74;67.01;63105.16;5051915;28;20213;-78
2022/04/07 05:23:02;;;;;;;5.50;4.55;;;;;;;10.59;67.84;63087.09;5050950;28;20221;-78
2022/04/07 05:25:30;;;;;;;9.30;4.03;;;;;;;10.57;69.67;63085.03;5061009;28;20198;-78
2022/04/07 05:27:57;;;;;;;6.40;4.30;;;;;;;10.67;69.05;63101.00;5079102;28;20576;-78
2022/04/07 05:30:24;;;;;;;5.60;3.80;;;;;;;10.72;68.40;63101.06;5065860;28;20197;-78
2022/04/07 05:32:50;;;;;;;6.15;3.33;;;;;;;10.71;68.41;63105.13;5065008;28;20229;-77
2022/04/07 05:35:17;;;;;;;5.65;3.80;;;;;;;10.47;71.06;63077.75;5061003;28;20546;-77
2022/04/07 05:37:44;;;;;;;8.15;4.18;;;;;;;10.16;70.76;63040.56;5049018;28;20222;-77
2022/04/07 05:40:12;;;;;;;6.57;4.28;;;;;;;10.01;72.48;63030.63;5046162;28;20274;-77
2022/04/07 05:42:41;;;;;;;8.48;3.72;;;;;;;10.04;74.10;63035.78;5061227;28;20221;-78
2022/04/07 05:45:09;;;;;;;7.78;4.20;;;;;;;10.11;74.57;63040.50;5065296;28;20197;-78
2022/04/07 05:47:39;;;;;;;4.63;3.70;;;;;;;10.26;73.88;63053.47;5063228;28;20229;-78
2022/04/07 05:50:07;;;;;;;7.88;4.43;;;;;;;10.19;73.20;63051.31;5067265;28;20185;-77
2022/04/07 05:52:34;;;;;;;6.07;4.40;;;;;;;10.02;74.21;63029.13;5067411;28;20226;-79
2022/04/07 05:55:01;;;;;;;8.32;3.72;;;;;;;9.93;75.06;63019.81;5063993;28;20237;-77
2022/04/07 05:57:30;;;;;;;5.72;4.15;;;;;;;9.90;75.42;63016.72;5047339;28;20608;-79
2022/04/07 06:00:06;;;;;;;6.03;4.63;;;;;;;9.81;76.38;63014.53;5055657;28;20198;-78
2022/04/07 06:02:33;;;;;;;8.50;4.07;;;;;;;9.83;75.14;63012.03;5046630;28;20217;-77
2022/04/07 06:05:00;;;;;;;10.88;4.18;;;;;;;9.69;75.28;62995.00;5047867;28;20301;-78
2022/04/07 06:07:27;;;;;;;5.10;4.05;;;;;;;9.94;74.26;63025.44;5056640;28;20457;-78
2022/04/07 06:09:53;;;;;;;14.65;4.47;;;;;;;10.18;73.96;63047.75;5056998;28;20194;-78
2022/04/07 06:12:20;;;;;;;7.25;4.60;;;;;;;10.45;73.16;63076.19;5049565;28;20237;-77
2022/04/07 06:14:47;;;;;;;4.45;4.05;;;;;;;10.62;71.58;63090.19;5055310;28;20226;-78
2022/04/07 06:17:15;;;;;;;3.42;3.22;;;;;;;10.74;71.46;63103.13;5064097;28;20579;-79
2022/04/07 06:19:42;;;;;;;6.82;4.63;;;;;;;10.97;71.14;63126.97;5048206;28;20198;-78
2022/04/07 06:22:11;;;;;;;7.05;5.20;;;;;;;11.14;69.32;63146.59;5067452;28;20218;-77
2022/04/07 06:24:38;;;;;;;6.35;4.75;;;;;;;11.27;67.45;63160.56;5049958;28;20218;-78
2022/04/07 06:27:05;;;;;;;5.13;4.63;;;;;;;10.94;67.89;63131.47;5051066;28;20228;-78
2022/04/07 06:29:32;;;;;;;5.38;4.75;;;;;;;10.69;66.62;63100.50;5047522;28;20205;-77
2022/04/07 06:31:59;;;;;;;4.82;4.43;;;;;;;10.86;67.55;63120.13;5048453;28;20217;-77
2022/04/07 06:34:27;;;;;;;5.00;4.50;;;;;;;10.89;68.32;63118.16;5047599;28;20376;-78
2022/04/07 06:36:53;;;;;;;6.68;4.22;;;;;;;10.75;67.41;63106.72;5053037;28;20349;-77
2022/04/07 06:39:20;;;;;;;6.47;4.28;;;;;;;10.68;66.12;63102.03;5053600;28;20198;-78
2022/04/07 06:41:47;;;;;;;6.38;4.68;;;;;;;10.83;65.75;63115.00;5050112;28;20224;-78
2022/04/07 06:44:14;;;;;;;5.20;3.97;;;;;;;10.78;65.70;63104.22;5063803;28;20197;-78
2022/04/07 06:46:41;;;;;;;5.80;4.07;;;;;;;10.56;65.70;63086.53;5067031;28;20200;-79
2022/04/07 06:49:08;;;;;;;7.82;4.28;;;;;;;10.52;65.84;63080.38;5066535;28;20221;-78
2022/04/07 06:51:36;;;;;;;5.68;4.63;;;;;;;10.70;66.41;63101.03;5049752;28;20229;-78
2022/04/07 06:54:03;;;;;;;6.90;4.55;;;;;;;10.59;66.49;63087.63;5051980;28;20247;-78
2022/04/07 06:56:30;;;;;;;9.23;4.53;;;;;;;10.82;65.77;63111.41;5060394;28;20236;-78
2022/04/07 06:58:57;;;;;;;6.60;4.85;;;;;;;10.89;65.26;63120.72;5051620;28;20206;-79
2022/04/07 07:01:24;;;;;;;5.68;4.50;;;;;;;11.11;64.30;63143.47;5063636;28;20201;-78
2022/04/07 07:04:00;;;;;;;4.25;3.95;;;;;;;11.26;64.40;63167.19;5070928;28;20244;-79
2022/04/07 07:06:27;;;;;;;6.70;4.15;;;;;;;11.07;64.30;63139.84;5070944;28;20219;-77
2022/04/07 07:08:55;;;;;;;4.72;4.20;;;;;;;11.24;66.51;63154.91;5057365;28;20251;-80
2022/04/07 07:11:22;;;;;;;10.27;4.25;;;;;;;11.22;63.90;63157.41;5076500;28;20204;-77
2022/04/07 07:13:49;;;;;;;7.45;4.28;;;;;;;11.27;63.65;63160.56;5063691;28;20288;-77
2022/04/07 07:16:16;;;;;;;5.30;4.22;;;;;;;11.39;62.30;63173.00;5062516;28;20214;-78
2022/04/07 07:18:44;;;;;;;9.88;4.03;;;;;;;11.57;61.93;63191.66;5051347;28;20217;-77
2022/04/07 07:21:11;;;;;;;4.40;3.97;;;;;;;11.76;61.07;63210.31;5063202;28;20205;-78
2022/04/07 07:23:37;;;;;;;6.88;3.85;;;;;;;11.91;59.62;63223.31;5062128;28;20323;-78
2022/04/07 07:26:06;;;;;;;5.25;4.15;;;;;;;12.05;58.95;63238.31;5073018;28;20193;-77
2022/04/07 07:28:33;;;;;;;5.20;4.70;;;;;;;12.26;58.04;63259.56;5053584;28;20221;-79
2022/04/07 07:31:00;;;;;;;6.72;4.90;;;;;;;12.14;56.91;63252.22;5050421;28;20208;-79
2022/04/07 07:33:27;;;;;;;7.15;4.85;;;;;;;12.00;57.97;63235.16;5052127;28;20218;-82
2022/04/07 07:35:54;;;;;;;9.05;3.88;;;;;;;11.72;58.81;63208.72;5053448;28;20268;-78
2022/04/07 07:38:21;;;;;;;4.72;3.50;;;;;;;12.04;57.26;63239.31;5060526;28;20225;-78
2022/04/07 07:40:48;;;;;;;4.82;4.28;;;;;;;11.82;59.67;63214.47;5048949;28;20198;-77
2022/04/07 07:43:16;;;;;;;6.63;4.47;;;;;;;11.72;61.32;63208.72;5053552;28;20228;-78
2022/04/07 07:45:43;;;;;;;5.78;3.83;;;;;;;11.74;59.83;63208.22;5066946;28;20209;-79
2022/04/07 07:48:10;;;;;;;6.70;4.13;;;;;;;11.44;62.52;63175.63;5061019;28;20214;-78
2022/04/07 07:50:40;;;;;;;11.85;4.85;;;;;;;11.55;63.83;63189.03;5046094;28;20515;-78
2022/04/07 07:53:07;;;;;;;7.05;4.20;;;;;;;11.74;61.27;63205.69;5046406;28;20210;-77
2022/04/07 07:55:35;;;;;;;5.88;3.95;;;;;;;11.45;62.11;63174.13;5050126;28;20226;-79
2022/04/07 07:58:02;;;;;;;8.18;4.35;;;;;;;11.62;61.09;63199.38;5059119;28;20229;-77
2022/04/07 08:00:31;;;;;;;6.25;4.30;;;;;;;11.89;60.38;63224.28;5048131;28;20202;-78
2022/04/07 08:02:57;;;;;;;5.75;4.05;;;;;;;11.51;59.83;63187.44;5045905;28;20408;-78
2022/04/07 08:05:24;;;;;;;5.07;4.57;;;;;;;11.24;60.59;63159.47;5053873;28;20247;-78
2022/04/07 08:07:51;;;;;;;6.68;5.18;;;;;;;11.58;60.54;63189.59;5064340;28;20431;-78
2022/04/07 08:10:18;;;;;;;7.53;3.78;;;;;;;11.77;61.00;63211.34;5063472;28;20186;-78
2022/04/07 08:12:44;;;;;;;5.38;4.75;;;;;;;11.84;59.35;63224.22;5059775;28;20226;-78
2022/04/07 08:15:12;;;;;;;8.15;5.05;;;;;;;11.99;58.59;63237.22;5053760;28;20233;-79
2022/04/07 08:17:40;;;;;;;10.18;4.70;;;;;;;12.02;59.72;63237.78;5054683;28;20768;-78
2022/04/07 08:20:08;;;;;;;7.57;4.68;;;;;;;12.26;57.96;63262.13;5057669;28;20193;-78
2022/04/07 08:22:36;;;;;;;7.97;5.15;;;;;;;12.16;56.20;63251.75;5057980;28;20252;-78
2022/04/07 08:25:03;;;;;;;8.65;5.43;;;;;;;12.36;57.34;63272.47;5061499;28;20220;-79
2022/04/07 08:27:30;;;;;;;10.98;5.82;;;;;;;12.56;56.45;63296.28;5056189;28;20214;-78
2022/04/07 08:29:56;;;;;;;6.38;4.60;;;;;;;11.92;56.90;63229.44;5052676;28;20476;-78
2022/04/07 08:32:23;;;;;;;9.77;4.40;;;;;;;12.27;56.52;63265.72;5055861;28;20221;-78
2022/04/07 08:34:51;;;;;;;6.40;4.15;;;;;;;12.49;55.17;63285.97;5058199;28;20198;-77
2022/04/07 08:37:18;;;;;;;6.38;4.13;;;;;;;12.53;54.48;63293.19;5052494;28;20218;-76
2022/04/07 08:39:45;;;;;;;9.25;4.97;;;;;;;12.62;54.91;63299.44;5057426;28;20265;-76
2022/04/07 08:42:13;;;;;;;8.70;4.65;;;;;;;12.73;54.50;63310.84;5049978;28;20549;-78
2022/04/07 08:44:40;;;;;;;7.85;5.05;;;;;;;12.94;53.74;63332.63;5057904;28;20251;-78
2022/04/07 08:47:07;;;;;;;9.35;4.35;;;;;;;13.15;52.93;63356.97;5066925;28;20415;-78
2022/04/07 08:49:38;;;;;;;14.30;5.70;;;;;;;13.08;52.92;63347.16;5061021;28;20210;-78
2022/04/07 08:52:08;;;;;;;8.32;5.55;;;;;;;13.17;53.03;63353.41;5053124;28;20214;-78
2022/04/07 08:54:35;;;;;;;5.90;4.90;;;;;;;13.25;53.15;63366.84;5046098;28;20205;-78
2022/04/07 08:57:03;;;;;;;7.32;6.05;;;;;;;13.25;52.89;63364.28;5062427;28;20225;-77
2022/04/07 08:59:31;;;;;;;11.55;5.78;;;;;;;13.38;52.31;63380.31;5065702;28;20383;-78
2022/04/07 09:02:02;;;;;;;11.35;4.82;;;;;;;13.42;52.56;63385.00;5052620;28;20233;-79
2022/04/07 09:04:30;;;;;;;6.72;5.22;;;;;;;13.37;52.71;63382.38;5047610;28;20190;-78
2022/04/07 09:06:58;;;;;;;5.57;5.07;;;;;;;13.10;53.04;63348.75;5047014;28;20248;-77
2022/04/07 09:09:26;;;;;;;14.27;4.30;;;;;;;13.00;53.57;63338.84;5045929;28;20199;-77
2022/04/07 09:11:56;;;;;;;11.05;5.15;;;;;;;12.68;54.52;63301.06;5052567;28;20228;-79
2022/04/07 09:14:24;;;;;;;8.27;4.95;;;;;;;12.70;54.76;63308.25;5063364;28;20201;-78
2022/04/07 09:16:54;;;;;;;9.98;4.60;;;;;;;12.14;57.89;63252.75;5051244;28;20226;-78
2022/04/07 09:19:22;;;;;;;15.52;5.53;;;;;;;11.83;60.50;63215.53;5047203;28;20264;-79
2022/04/07 09:22:06;;;;;;;6.68;5.85;;;;;;;11.77;60.48;63211.84;5046494;28;20229;-78
2022/04/07 09:24:36;;;;;;;11.55;5.50;;;;;;;11.72;60.52;63206.69;5058655;28;20373;-77
2022/04/07 09:27:05;;;;;;;8.02;5.35;;;;;;;11.73;60.83;63207.72;5067085;28;20214;-78
2022/04/07 09:29:40;;;;;;;5.70;5.10;;;;;;;11.72;60.25;63201.56;5045459;28;20233;-78
2022/04/07 09:32:18;;;;;;;10.05;4.97;;;;;;;11.73;60.26;63210.28;5057063;28;20460;-77
2022/04/07 09:34:46;;;;;;;14.30;5.80;;;;;;;11.36;62.99;63169.88;5064828;28;20197;-78
2022/04/07 09:37:14;;;;;;;8.35;5.55;;;;;;;11.37;60.42;63172.97;5065307;28;20454;-78
2022/04/07 09:39:43;;;;;;;8.50;4.60;;;;;;;11.42;60.66;63171.00;5061913;28;20247;-77
2022/04/07 09:42:25;;;;;;;5.43;4.80;;;;;;;11.56;60.02;63192.66;5051126;28;20289;-78
2022/04/07 09:44:54;;;;;;;9.45;5.00;;;;;;;11.26;60.53;63159.00;5060368;28;20246;-77
2022/04/07 09:47:21;;;;;;;10.70;5.45;;;;;;;11.18;61.54;63153.28;5059004;28;20225;-78
2022/04/07 09:49:49;;;;;;;8.85;5.45;;;;;;;11.00;62.46;63132.59;5057899;28;20205;-78
2022/04/07 09:52:21;;;;;;;10.15;4.80;;;;;;;11.04;62.67;63134.22;5065900;28;20221;-78
2022/04/07 09:54:52;;;;;;;9.50;6.05;;;;;;;10.93;64.47;63122.81;5066738;28;20190;-78
2022/04/07 09:57:20;;;;;;;10.90;4.60;;;;;;;10.84;66.14;63113.50;5066132;28;20244;-78
2022/04/07 09:59:48;;;;;;;7.55;4.40;;;;;;;10.67;66.06;63098.44;5064708;28;20205;-78
2022/04/07 10:02:17;;;;;;;10.60;6.00;;;;;;;10.53;67.76;63083.44;5069464;28;20240;-77
2022/04/07 10:04:44;;;;;;;15.93;5.13;;;;;;;10.40;70.53;63073.03;5070199;28;20220;-80
2022/04/07 10:07:12;;;;;;;7.78;4.78;;;;;;;10.08;77.27;63037.34;5055069;28;20218;-78
2022/04/07 10:09:40;;;;;;;11.40;5.18;;;;;;;9.80;85.60;63011.44;5056770;28;20225;-78
2022/04/07 10:12:10;;;;;;;8.85;4.57;;;;;;;9.74;89.98;63005.25;5046058;28;20218;-78
2022/04/07 10:14:37;;;;;;;8.20;5.57;;;;;;;9.67;95.01;62994.94;5045835;28;20194;-79
2022/04/07 10:17:05;;;;;;;9.70;6.03;;;;;;;9.66;99.36;62997.00;5051850;28;20252;-78
2022/04/07 10:19:35;;;;;;;16.60;7.80;;;;;;;9.23;100.00;62950.50;5059566;28;20529;-78
2022/04/07 10:22:26;;;;;;;19.58;6.85;;;;;;;9.15;100.00;62944.25;5057848;28;20245;-78
2022/04/07 10:25:01;;;;;;;23.90;6.53;;;;;;;8.74;100.00;62899.84;5046886;28;20431;-81
2022/04/07 10:27:33;;;;;;;17.13;7.60;;;;;;;8.20;100.00;62844.56;5059238;28;20288;-80
2022/04/07 10:30:10;;;;;;;18.30;8.02;;;;;;;8.13;100.00;62839.34;5051584;28;20186;-81
2022/04/07 10:32:41;;;;;;;12.05;4.82;;;;;;;8.09;100.00;62832.69;5053533;28;20221;-80
2022/04/07 10:35:10;;;;;;;10.63;6.03;;;;;;;8.11;100.00;62832.22;5052466;28;20194;-81
2022/04/07 10:37:48;;;;;;;11.60;4.55;;;;;;;8.15;100.00;62841.41;5059133;28;20540;-81
2022/04/07 10:40:34;;;;;;;13.82;5.00;;;;;;;8.17;100.00;62841.47;5066456;28;20490;-80
2022/04/07 10:43:13;;;;;;;7.07;5.57;;;;;;;8.10;100.00;62829.16;5052269;28;20224;-80
2022/04/07 10:45:41;;;;;;;13.35;5.53;;;;;;;8.18;100.00;62839.97;5061789;28;20209;-80
2022/04/07 10:48:18;;;;;;;12.88;6.18;;;;;;;8.58;100.00;62883.31;5054805;28;20305;-83
2022/04/07 10:50:49;;;;;;;15.30;7.20;;;;;;;8.72;100.00;62900.31;5051337;28;20230;-83
2022/04/07 10:53:22;;;;;;;14.50;8.07;;;;;;;8.89;100.00;62917.88;5052857;28;20550;-81
2022/04/07 10:56:06;;;;;;;17.27;7.90;;;;;;;8.93;100.00;62916.44;5071052;28;20235;-80
2022/04/07 10:58:46;;;;;;;12.88;8.80;;;;;;;9.22;100.00;62949.47;5071028;28;20225;-81
2022/04/07 11:01:31;;;;;;;13.63;9.02;;;;;;;9.56;100.00;62983.59;5060522;28;20210;-83
2022/04/07 11:04:32;;;;;;;13.70;7.15;;;;;;;9.52;100.00;62976.91;5044432;28;20240;-83
2022/04/07 11:07:18;;;;;;;11.07;7.18;;;;;;;9.87;100.00;63013.09;5068247;28;20221;-80
2022/04/07 11:10:11;;;;;;;12.32;7.25;;;;;;;10.16;100.00;63045.66;5067428;28;20205;-81
2022/04/07 11:12:39;;;;;;;15.77;7.03;;;;;;;10.18;100.00;63048.25;5053237;28;20217;-79
2022/04/07 11:15:32;;;;;;;10.57;6.93;;;;;;;10.15;100.00;63044.63;5053174;28;20209;-80
2022/04/07 11:18:03;;;;;;;13.45;7.07;;;;;;;10.29;100.00;63057.09;5064299;28;20221;-80
2022/04/07 11:20:30;;;;;;;12.27;7.22;;;;;;;10.47;100.00;63080.28;5073648;28;20193;-80
2022/04/07 11:23:01;;;;;;;9.57;7.30;;;;;;;10.75;100.00;63106.72;5072891;28;20225;-79
2022/04/07 11:25:31;;;;;;;10.93;7.25;;;;;;;10.91;100.00;63125.31;5072430;28;20198;-79
2022/04/07 11:28:19;;;;;;;26.45;17.98;;;;;;;11.12;100.00;63144.50;5056185;28;20301;-80
2022/04/07 11:30:49;;;;;;;24.98;15.13;;;;;;;11.11;100.00;63146.03;5050035;28;20205;-79
2022/04/07 11:33:28;;;;;;;15.35;10.93;;;;;;;10.80;100.00;63111.91;5054195;28;20232;-79
2022/04/07 11:36:15;;;;;;;16.08;11.80;;;;;;;11.02;100.00;63132.13;5055955;28;20236;-80
2022/04/07 11:38:46;;;;;;;19.85;11.95;;;;;;;11.19;100.00;63157.38;5053741;28;20221;-81
2022/04/07 11:41:15;;;;;;;15.05;9.90;;;;;;;10.99;100.00;63128.50;5066271;28;20197;-79